Time;durP1;ratioP1;P1;durP2;ratioP2;P2;SDS_P1;SDS_P2;PMS_P1;PMS_P2;Temp;Humidity;BMP_temperature;BMP_pressure;BME280_temperature;BME280_humidity;BME280_pressure;Samples;Min_cycle;Max_cycle;Signal;HPM_P1;HPM_P2
2021/08/12 00:01:30;;;;;;;10.90;9.80;;;13.30;99.90;;;;;;5061690;28;20040;-75
2021/08/12 00:03:56;;;;;;;12.32;10.10;;;13.30;99.90;;;;;;5070562;28;20094;-73
2021/08/12 00:06:23;;;;;;;12.30;10.98;;;13.20;99.90;;;;;;5054019;28;20472;-72
2021/08/12 00:08:52;;;;;;;11.70;9.07;;;13.10;99.90;;;;;;5052021;28;20099;-72
2021/08/12 00:11:18;;;;;;;11.75;9.57;;;13.10;99.90;;;;;;5052561;28;20452;-72
2021/08/12 00:13:45;;;;;;;11.57;8.80;;;13.10;99.90;;;;;;5052625;28;20497;-73
2021/08/12 00:16:12;;;;;;;11.30;9.82;;;13.00;99.90;;;;;;5059054;28;20040;-75
2021/08/12 00:18:42;;;;;;;11.73;9.60;;;13.00;99.90;;;;;;5071976;28;20592;-72
2021/08/12 00:21:09;;;;;;;12.32;10.57;;;13.00;99.90;;;;;;5050627;28;20523;-74
2021/08/12 00:23:35;;;;;;;11.95;9.15;;;13.00;99.90;;;;;;5052642;28;20460;-73
2021/08/12 00:26:04;;;;;;;13.57;9.27;;;13.00;99.90;;;;;;5053364;28;20045;-75
2021/08/12 00:28:31;;;;;;;12.18;10.10;;;13.10;99.90;;;;;;5051621;28;20410;-74
2021/08/12 00:30:57;;;;;;;10.63;8.98;;;13.10;99.90;;;;;;5051947;28;20045;-74
2021/08/12 00:33:24;;;;;;;12.57;9.73;;;13.10;99.90;;;;;;5052018;28;20497;-74
2021/08/12 00:35:52;;;;;;;13.70;10.52;;;13.00;99.90;;;;;;5052115;28;20116;-73
2021/08/12 00:38:19;;;;;;;11.48;9.20;;;12.90;99.90;;;;;;5051676;28;20083;-74
2021/08/12 00:40:46;;;;;;;11.65;10.27;;;12.90;99.90;;;;;;5053293;28;20040;-73
2021/08/12 00:43:14;;;;;;;9.80;8.70;;;13.10;99.90;;;;;;5051551;28;20496;-74
2021/08/12 00:45:40;;;;;;;11.20;9.35;;;13.20;99.90;;;;;;5051975;28;20045;-76
2021/08/12 00:48:07;;;;;;;11.68;8.80;;;13.20;99.90;;;;;;5058687;28;20087;-72
2021/08/12 00:50:36;;;;;;;9.68;8.70;;;13.30;99.90;;;;;;5071163;28;20219;-72
2021/08/12 00:53:03;;;;;;;10.30;8.52;;;13.30;99.90;;;;;;5066588;28;20037;-72
2021/08/12 00:55:30;;;;;;;9.32;8.35;;;13.20;99.90;;;;;;5064457;28;20455;-72
2021/08/12 00:57:56;;;;;;;12.00;10.02;;;13.20;99.90;;;;;;5063704;28;20053;-72
2021/08/12 01:00:24;;;;;;;12.65;10.15;;;13.20;99.90;;;;;;5052953;28;20044;-72
2021/08/12 01:02:51;;;;;;;10.68;8.05;;;13.10;99.90;;;;;;5052190;28;20045;-72
2021/08/12 01:05:19;;;;;;;10.80;7.82;;;13.10;99.90;;;;;;5053572;28;20037;-73
2021/08/12 01:07:56;;;;;;;10.93;8.73;;;13.20;99.90;;;;;;5051867;28;20448;-73
2021/08/12 01:10:29;;;;;;;10.55;8.38;;;13.30;99.90;;;;;;5051428;28;20045;-72
2021/08/12 01:13:02;;;;;;;8.50;7.55;;;13.20;99.90;;;;;;5055297;28;20462;-72
2021/08/12 01:15:36;;;;;;;11.77;8.45;;;13.10;99.90;;;;;;5051795;28;20095;-72
2021/08/12 01:18:08;;;;;;;13.95;9.65;;;13.10;99.90;;;;;;5051850;28;20490;-72
2021/08/12 01:21:18;;;;;;;9.68;7.90;;;13.10;99.90;;;;;;5050065;28;20045;-72
2021/08/12 01:23:44;;;;;;;11.90;8.23;;;13.00;99.90;;;;;;5066552;28;20045;-72
2021/08/12 01:26:15;;;;;;;10.82;8.82;;;13.00;99.90;;;;;;5072789;28;20045;-71
2021/08/12 01:28:44;;;;;;;11.37;8.90;;;12.80;99.90;;;;;;5055480;28;20080;-72
2021/08/12 01:31:32;;;;;;;10.38;8.75;;;12.80;99.90;;;;;;5055325;28;20299;-72
2021/08/12 01:34:09;;;;;;;12.30;8.77;;;12.90;99.90;;;;;;5056285;28;20044;-72
2021/08/12 01:36:41;;;;;;;13.40;9.15;;;12.90;99.90;;;;;;5074990;28;20044;-73
2021/08/12 01:39:11;;;;;;;9.30;8.32;;;12.90;99.90;;;;;;5060058;28;20052;-72
2021/08/12 01:41:39;;;;;;;9.80;8.50;;;13.00;99.90;;;;;;5055035;28;20505;-73
2021/08/12 01:44:07;;;;;;;15.20;8.52;;;13.00;99.90;;;;;;5055854;28;20102;-72
2021/08/12 01:46:35;;;;;;;12.57;10.18;;;12.90;99.90;;;;;;5056927;28;20099;-72
2021/08/12 01:49:04;;;;;;;11.93;8.98;;;12.60;99.90;;;;;;5072604;28;20044;-73
2021/08/12 01:51:32;;;;;;;10.20;8.80;;;12.50;99.90;;;;;;5075056;28;20145;-72
2021/08/12 01:54:02;;;;;;;12.23;9.30;;;12.50;99.90;;;;;;5059355;28;20045;-72
2021/08/12 01:56:29;;;;;;;10.00;8.02;;;12.60;99.90;;;;;;5055814;28;20041;-76
2021/08/12 01:58:58;;;;;;;11.27;7.60;;;12.70;99.90;;;;;;5054961;28;20240;-79
2021/08/12 02:01:26;;;;;;;12.00;8.63;;;12.80;99.90;;;;;;5051817;28;20083;-72
2021/08/12 02:03:53;;;;;;;10.88;8.52;;;12.90;99.90;;;;;;5055349;28;20044;-71
2021/08/12 02:06:21;;;;;;;9.30;7.78;;;12.80;99.90;;;;;;5054851;28;20049;-72
2021/08/12 02:08:48;;;;;;;11.05;9.05;;;12.70;99.90;;;;;;5054191;28;20045;-72
2021/08/12 02:11:16;;;;;;;10.35;9.02;;;12.80;99.90;;;;;;5054947;28;20102;-73
2021/08/12 02:13:43;;;;;;;12.00;8.13;;;12.80;99.90;;;;;;5057274;28;20094;-74
2021/08/12 02:16:10;;;;;;;10.20;8.65;;;12.70;99.90;;;;;;5073300;28;20044;-73
2021/08/12 02:18:39;;;;;;;11.73;8.18;;;12.70;99.90;;;;;;5054556;28;20056;-73
2021/08/12 02:21:11;;;;;;;11.05;8.65;;;12.70;99.90;;;;;;5054208;28;20045;-75
2021/08/12 02:23:41;;;;;;;10.27;9.10;;;12.70;99.90;;;;;;5054529;28;20095;-73
2021/08/12 02:26:10;;;;;;;9.75;8.57;;;12.70;99.90;;;;;;5054485;28;20562;-72
2021/08/12 02:28:42;;;;;;;10.30;7.95;;;12.70;99.90;;;;;;5053903;28;20179;-72
2021/08/12 02:31:10;;;;;;;10.02;8.95;;;12.70;99.90;;;;;;5054394;28;20110;-72
2021/08/12 02:33:38;;;;;;;11.32;8.50;;;12.60;99.90;;;;;;5054165;28;20048;-73
2021/08/12 02:36:06;;;;;;;11.30;9.30;;;12.50;99.90;;;;;;5060018;28;20045;-72
2021/08/12 02:38:34;;;;;;;9.52;8.35;;;12.40;99.90;;;;;;5067258;28;20462;-73
2021/08/12 02:41:01;;;;;;;13.68;9.35;;;12.40;99.90;;;;;;5054376;28;20455;-74
2021/08/12 02:43:29;;;;;;;12.75;8.88;;;12.40;99.90;;;;;;5054437;28;20087;-74
2021/08/12 02:46:01;;;;;;;10.20;8.05;;;12.40;99.90;;;;;;5069969;28;20099;-75
2021/08/12 02:48:30;;;;;;;13.25;9.25;;;12.40;99.90;;;;;;5069929;28;20049;-77
2021/08/12 02:50:58;;;;;;;9.68;8.32;;;12.50;99.90;;;;;;5071647;28;20472;-75
2021/08/12 02:53:26;;;;;;;12.63;8.82;;;12.50;99.90;;;;;;5074390;28;20045;-74
2021/08/12 02:55:53;;;;;;;10.50;8.75;;;12.30;99.90;;;;;;5073676;28;20090;-73
2021/08/12 02:58:21;;;;;;;12.77;8.65;;;12.10;99.90;;;;;;5066014;28;20045;-78
2021/08/12 03:00:47;;;;;;;11.45;8.00;;;11.90;99.90;;;;;;5056991;28;20048;-74
2021/08/12 03:03:17;;;;;;;15.07;10.52;;;11.80;99.90;;;;;;5053910;28;20414;-73
2021/08/12 03:05:46;;;;;;;11.05;9.05;;;11.70;99.90;;;;;;5055895;28;20497;-78
2021/08/12 03:08:16;;;;;;;10.18;9.10;;;11.60;99.90;;;;;;5073736;28;20049;-74
2021/08/12 03:10:43;;;;;;;12.23;9.65;;;11.60;99.90;;;;;;5033533;28;20049;-74
2021/08/12 03:13:10;;;;;;;12.13;10.40;;;11.70;99.90;;;;;;5046701;28;20452;-76
2021/08/12 03:15:38;;;;;;;11.20;9.35;;;11.80;99.90;;;;;;5064453;28;20044;-73
2021/08/12 03:18:05;;;;;;;9.68;8.23;;;11.90;99.90;;;;;;5073830;28;20045;-74
2021/08/12 03:20:33;;;;;;;10.65;8.60;;;12.00;99.90;;;;;;5066816;28;20098;-74
2021/08/12 03:23:00;;;;;;;12.27;9.40;;;12.00;99.90;;;;;;5053754;28;20056;-74
2021/08/12 03:25:27;;;;;;;11.23;8.68;;;11.80;99.90;;;;;;5054030;28;20041;-74
2021/08/12 03:27:54;;;;;;;12.48;9.65;;;11.60;99.90;;;;;;5064986;28;20045;-74
2021/08/12 03:30:20;;;;;;;13.98;10.02;;;11.60;99.90;;;;;;5052811;28;20045;-74
2021/08/12 03:32:47;;;;;;;10.60;9.05;;;11.50;99.90;;;;;;5053539;28;20049;-73
2021/08/12 03:35:14;;;;;;;12.00;9.27;;;11.50;99.90;;;;;;5053112;28;20048;-73
2021/08/12 03:37:42;;;;;;;14.15;9.70;;;11.40;99.90;;;;;;5053177;28;20451;-72
2021/08/12 03:40:10;;;;;;;14.82;9.48;;;11.40;99.90;;;;;;5052584;28;20045;-70
2021/08/12 03:42:37;;;;;;;11.70;9.18;;;11.50;99.90;;;;;;5058020;28;20095;-70
2021/08/12 03:45:04;;;;;;;9.10;8.20;;;11.60;99.90;;;;;;5052995;28;20489;-69
2021/08/12 03:47:31;;;;;;;12.15;8.85;;;11.70;99.90;;;;;;5052777;28;20045;-71
2021/08/12 03:49:58;;;;;;;11.65;9.25;;;11.80;99.90;;;;;;5059086;28;20056;-72
2021/08/12 03:52:24;;;;;;;11.30;8.82;;;11.90;99.90;;;;;;5066465;28;20437;-68
2021/08/12 03:54:52;;;;;;;9.40;8.38;;;12.00;99.90;;;;;;5057812;28;20048;-69
2021/08/12 03:57:19;;;;;;;10.90;9.00;;;12.00;99.90;;;;;;5072514;28;20044;-67
2021/08/12 03:59:45;;;;;;;10.88;9.07;;;12.00;99.90;;;;;;5053255;28;20405;-70
2021/08/12 04:02:12;;;;;;;10.13;8.85;;;12.00;99.90;;;;;;5052252;28;20115;-70
2021/08/12 04:04:38;;;;;;;10.55;8.30;;;12.00;99.90;;;;;;5052175;28;20053;-72
2021/08/12 04:07:05;;;;;;;12.15;8.95;;;12.00;99.90;;;;;;5052488;28;20049;-74
2021/08/12 04:09:32;;;;;;;11.02;9.00;;;12.00;99.90;;;;;;5071653;28;20091;-71
2021/08/12 04:12:00;;;;;;;12.15;8.50;;;12.20;99.90;;;;;;5069344;28;20048;-72
2021/08/12 04:14:26;;;;;;;10.48;8.23;;;12.20;99.90;;;;;;5066072;28;20040;-71
2021/08/12 04:16:53;;;;;;;15.00;8.48;;;12.20;99.90;;;;;;5056831;28;20090;-71
2021/08/12 04:19:19;;;;;;;9.45;8.55;;;12.10;99.90;;;;;;5058590;28;20540;-70
2021/08/12 04:21:46;;;;;;;10.85;8.10;;;12.00;99.90;;;;;;5052413;28;20110;-74
2021/08/12 04:24:13;;;;;;;13.27;8.57;;;11.80;99.90;;;;;;5053143;28;20045;-70
2021/08/12 04:26:39;;;;;;;10.77;8.88;;;11.80;99.90;;;;;;5053102;28;20053;-72
2021/08/12 04:29:07;;;;;;;11.02;8.20;;;11.80;99.90;;;;;;5051402;28;20270;-71
2021/08/12 04:31:34;;;;;;;9.63;7.40;;;12.00;99.90;;;;;;5052152;28;20045;-71
2021/08/12 04:34:00;;;;;;;8.73;7.53;;;12.00;99.90;;;;;;5051622;28;20044;-74
2021/08/12 04:36:27;;;;;;;10.38;7.90;;;12.00;99.90;;;;;;5051590;28;20045;-71
2021/08/12 04:38:53;;;;;;;9.20;7.72;;;12.10;99.90;;;;;;5051742;28;20118;-72
2021/08/12 04:41:21;;;;;;;11.40;7.78;;;12.20;99.90;;;;;;5051793;28;20049;-67
2021/08/12 04:43:48;;;;;;;8.85;7.55;;;12.10;99.90;;;;;;5051732;28;20064;-69
2021/08/12 04:46:16;;;;;;;13.85;7.72;;;12.10;99.90;;;;;;5065159;28;20051;-68
2021/08/12 04:48:43;;;;;;;11.00;7.90;;;12.30;99.90;;;;;;5064278;28;20041;-73
2021/08/12 04:51:11;;;;;;;8.77;7.22;;;12.50;99.90;;;;;;5051605;28;20048;-71
2021/08/12 04:53:38;;;;;;;8.07;7.28;;;12.60;99.90;;;;;;5052934;28;20528;-70
2021/08/12 04:56:05;;;;;;;11.95;6.90;;;12.60;99.90;;;;;;5062474;28;20094;-71
2021/08/12 04:58:31;;;;;;;9.77;8.60;;;12.70;99.90;;;;;;5062756;28;20037;-72
2021/08/12 05:00:58;;;;;;;8.02;6.93;;;12.80;99.90;;;;;;5050644;28;20103;-70
2021/08/12 05:03:26;;;;;;;8.73;7.25;;;13.00;99.90;;;;;;5051632;28;20052;-72
2021/08/12 05:06:01;;;;;;;10.07;7.63;;;13.20;99.90;;;;;;5051365;28;20516;-71
2021/08/12 05:08:28;;;;;;;8.93;6.90;;;13.40;99.90;;;;;;5051289;28;20156;-70
2021/08/12 05:10:55;;;;;;;7.88;7.07;;;13.60;99.90;;;;;;5051188;28;20486;-67
2021/08/12 05:13:25;;;;;;;8.00;7.13;;;13.60;99.90;;;;;;5053177;28;20053;-71
2021/08/12 05:15:52;;;;;;;8.77;7.22;;;13.70;99.90;;;;;;5050598;28;20066;-67
2021/08/12 05:18:19;;;;;;;10.95;8.40;;;13.70;99.90;;;;;;5051175;28;20057;-65
2021/08/12 05:20:47;;;;;;;9.57;7.93;;;13.70;99.90;;;;;;5050979;28;20037;-67
2021/08/12 05:23:15;;;;;;;15.63;9.80;;;13.80;99.90;;;;;;5052162;28;20052;-67
2021/08/12 05:25:44;;;;;;;10.80;9.48;;;14.00;99.90;;;;;;5071379;28;20075;-67
2021/08/12 05:28:11;;;;;;;8.90;7.70;;;14.10;99.90;;;;;;5069663;28;20053;-69
2021/08/12 05:30:38;;;;;;;22.80;13.85;;;14.20;99.90;;;;;;5053596;28;20052;-68
2021/08/12 05:33:05;;;;;;;33.25;19.33;;;14.30;99.90;;;;;;5053115;28;20060;-69
2021/08/12 05:35:32;;;;;;;11.20;10.07;;;14.50;99.90;;;;;;5051162;28;20052;-69
2021/08/12 05:38:00;;;;;;;13.80;10.07;;;14.60;99.90;;;;;;5053955;28;20513;-69
2021/08/12 05:40:27;;;;;;;11.55;9.32;;;14.70;99.90;;;;;;5039743;28;20037;-70
2021/08/12 05:42:53;;;;;;;15.20;10.55;;;14.90;99.90;;;;;;5045165;28;20042;-67
2021/08/12 05:45:20;;;;;;;11.02;9.48;;;15.10;99.90;;;;;;5039341;28;20122;-67
2021/08/12 05:47:47;;;;;;;13.25;10.40;;;15.40;99.90;;;;;;5051120;28;20049;-66
2021/08/12 05:50:13;;;;;;;14.68;12.45;;;15.50;99.90;;;;;;5050405;28;20456;-71
2021/08/12 05:52:40;;;;;;;41.70;21.88;;;15.60;99.90;;;;;;5052130;28;20053;-69
2021/08/12 05:55:09;;;;;;;26.65;16.15;;;15.80;99.90;;;;;;5050858;28;20045;-67
2021/08/12 05:57:36;;;;;;;78.07;44.95;;;16.10;99.90;;;;;;5050697;28;20493;-70
2021/08/12 06:00:03;;;;;;;11.43;10.23;;;16.40;99.90;;;;;;5054127;28;20386;-72
2021/08/12 06:02:32;;;;;;;46.17;28.85;;;16.70;99.90;;;;;;5058641;28;20044;-69
2021/08/12 06:04:59;;;;;;;61.83;38.08;;;17.10;99.90;;;;;;5055665;28;20044;-71
2021/08/12 06:07:25;;;;;;;58.83;35.70;;;17.60;99.90;;;;;;5051782;28;20044;-66
2021/08/12 06:09:52;;;;;;;16.17;13.48;;;17.90;99.90;;;;;;5050018;28;20136;-66
2021/08/12 06:12:20;;;;;;;11.50;10.30;;;18.40;99.90;;;;;;5053613;28;20107;-66
2021/08/12 06:14:47;;;;;;;13.80;10.68;;;18.60;99.90;;;;;;5059805;28;20075;-67
2021/08/12 06:17:13;;;;;;;18.85;15.05;;;19.00;99.90;;;;;;5054161;28;20049;-68
2021/08/12 06:19:40;;;;;;;11.60;8.80;;;19.10;99.90;;;;;;5054379;28;20495;-67
2021/08/12 06:22:07;;;;;;;10.40;7.82;;;19.50;99.90;;;;;;5074344;28;20048;-67
2021/08/12 06:24:33;;;;;;;8.43;7.57;;;19.50;99.90;;;;;;5074449;28;20048;-67
2021/08/12 06:27:00;;;;;;;9.13;7.78;;;19.70;99.90;;;;;;5061182;28;20049;-67
2021/08/12 06:29:28;;;;;;;7.95;6.80;;;19.80;99.90;;;;;;5053227;28;20052;-71
2021/08/12 06:31:55;;;;;;;9.73;8.70;;;20.00;99.90;;;;;;5068017;28;20055;-71
2021/08/12 06:34:21;;;;;;;8.63;7.75;;;20.10;99.90;;;;;;5057069;28;20420;-69
2021/08/12 06:36:48;;;;;;;8.70;7.32;;;20.50;99.90;;;;;;5053883;28;20060;-70
2021/08/12 06:39:15;;;;;;;8.73;7.22;;;20.90;99.90;;;;;;5053519;28;20080;-70
2021/08/12 06:41:43;;;;;;;9.30;6.90;;;21.10;99.90;;;;;;5065437;28;20045;-71
2021/08/12 06:44:10;;;;;;;7.40;6.43;;;21.40;99.90;;;;;;5054319;28;20048;-68
2021/08/12 06:46:38;;;;;;;8.57;7.55;;;21.80;99.90;;;;;;5054001;28;20386;-71
2021/08/12 06:49:04;;;;;;;7.95;7.15;;;22.10;99.90;;;;;;5058802;28;20041;-70
2021/08/12 06:51:31;;;;;;;8.73;6.75;;;22.30;99.90;;;;;;5070717;28;20048;-71
2021/08/12 06:53:57;;;;;;;8.80;7.75;;;22.70;99.90;;;;;;5053936;28;20045;-70
2021/08/12 06:56:24;;;;;;;10.98;9.00;;;22.80;99.90;;;;;;5053452;28;20056;-69
2021/08/12 06:58:51;;;;;;;14.48;11.02;;;22.80;99.90;;;;;;5053172;28;20049;-68
2021/08/12 07:01:18;;;;;;;17.08;11.20;;;23.10;99.90;;;;;;5056014;28;20048;-68
2021/08/12 07:03:46;;;;;;;7.53;5.85;;;23.10;99.90;;;;;;5053639;28;20052;-69
2021/08/12 07:06:12;;;;;;;9.60;7.00;;;23.40;99.90;;;;;;5053763;28;20094;-69
2021/08/12 07:08:39;;;;;;;14.27;11.07;;;23.80;99.90;;;;;;5057130;28;20045;-69
2021/08/12 07:11:06;;;;;;;5.72;5.20;;;24.20;99.90;;;;;;5073627;28;20060;-70
2021/08/12 07:13:33;;;;;;;23.23;17.00;;;24.00;99.90;;;;;;5068720;28;20048;-70
2021/08/12 07:16:00;;;;;;;7.22;6.38;;;24.50;99.90;;;;;;5063070;28;20097;-70
2021/08/12 07:18:26;;;;;;;6.82;6.10;;;24.90;99.90;;;;;;5068930;28;20452;-69
2021/08/12 07:20:54;;;;;;;6.88;6.07;;;25.20;99.90;;;;;;5054018;28;20102;-70
2021/08/12 07:23:21;;;;;;;11.85;8.38;;;25.60;99.90;;;;;;5052503;28;20296;-69
2021/08/12 07:25:47;;;;;;;7.50;5.88;;;25.40;99.90;;;;;;5054477;28;20036;-68
2021/08/12 07:28:14;;;;;;;4.63;4.22;;;25.30;99.80;;;;;;5052870;28;20102;-67
2021/08/12 07:30:41;;;;;;;6.80;5.65;;;25.50;98.30;;;;;;5046129;28;20114;-66
2021/08/12 07:33:07;;;;;;;4.50;4.07;;;25.40;99.20;;;;;;5055618;28;20098;-66
2021/08/12 07:35:34;;;;;;;7.78;5.82;;;26.10;96.60;;;;;;5052831;28;20049;-67
2021/08/12 07:38:02;;;;;;;7.72;6.55;;;26.20;97.30;;;;;;5052714;28;20051;-67
2021/08/12 07:40:30;;;;;;;16.17;9.88;;;26.70;95.00;;;;;;5052386;28;20041;-68
2021/08/12 07:42:56;;;;;;;9.75;7.22;;;27.10;93.40;;;;;;5052900;28;20103;-67
2021/08/12 07:45:23;;;;;;;5.05;4.50;;;27.30;91.80;;;;;;5053712;28;20103;-70
2021/08/12 07:47:50;;;;;;;4.43;3.40;;;27.20;90.20;;;;;;5053068;28;20460;-68
2021/08/12 07:50:16;;;;;;;5.10;3.53;;;27.10;86.90;;;;;;5051430;28;20045;-69
2021/08/12 07:52:43;;;;;;;6.10;4.03;;;27.20;86.60;;;;;;5052829;28;20048;-70
2021/08/12 07:55:12;;;;;;;9.40;7.90;;;27.40;86.50;;;;;;5064441;28;20649;-68
2021/08/12 07:57:38;;;;;;;4.28;3.90;;;27.20;83.70;;;;;;5052815;28;20045;-66
2021/08/12 08:00:06;;;;;;;3.42;3.10;;;27.20;84.30;;;;;;5051834;28;20049;-67
2021/08/12 08:02:42;;;;;;;15.98;11.90;;;27.70;79.10;;;;;;5052277;28;20460;-67
2021/08/12 08:05:10;;;;;;;3.38;3.08;;;27.70;76.80;;;;;;5052315;28;20045;-67
2021/08/12 08:07:36;;;;;;;2.88;2.50;;;27.50;77.10;;;;;;5059703;28;20037;-67
2021/08/12 08:10:05;;;;;;;3.47;3.17;;;28.30;74.30;;;;;;5071998;28;20048;-66
2021/08/12 08:12:33;;;;;;;3.22;2.95;;;28.00;77.90;;;;;;5072163;28;20052;-68
2021/08/12 08:15:00;;;;;;;3.22;3.03;;;28.70;74.00;;;;;;5053334;28;20052;-70
2021/08/12 08:17:27;;;;;;;2.97;2.15;;;28.40;72.50;;;;;;5051773;28;20044;-70
2021/08/12 08:19:53;;;;;;;2.22;2.05;;;28.20;70.80;;;;;;5051546;28;20048;-69
2021/08/12 08:22:20;;;;;;;4.28;2.90;;;28.40;70.70;;;;;;5059599;28;20049;-70
2021/08/12 08:24:47;;;;;;;2.72;2.53;;;28.10;68.20;;;;;;5071994;28;20504;-70
2021/08/12 08:27:13;;;;;;;5.50;4.63;;;27.80;70.10;;;;;;5065725;28;20045;-68
2021/08/12 08:29:41;;;;;;;1.90;1.80;;;28.00;69.80;;;;;;5051152;28;20617;-68
2021/08/12 08:32:09;;;;;;;2.30;2.10;;;28.00;67.90;;;;;;5070152;28;20052;-67
2021/08/12 08:34:35;;;;;;;2.60;2.00;;;27.90;67.70;;;;;;5071869;28;20068;-68
2021/08/12 08:37:02;;;;;;;3.08;2.58;;;27.40;67.70;;;;;;5064240;28;20048;-68
2021/08/12 08:39:29;;;;;;;2.42;2.22;;;27.60;68.30;;;;;;5051271;28;20041;-69
2021/08/12 08:41:56;;;;;;;1.88;1.77;;;27.10;68.50;;;;;;5061997;28;20049;-71
2021/08/12 08:44:25;;;;;;;2.30;1.83;;;28.20;64.10;;;;;;5072029;28;20049;-70
2021/08/12 08:46:53;;;;;;;5.30;4.40;;;28.70;63.70;;;;;;5071849;28;20055;-69
2021/08/12 08:49:23;;;;;;;4.22;3.35;;;29.60;62.30;;;;;;5062673;28;20090;-70
2021/08/12 08:51:51;;;;;;;2.22;2.08;;;30.00;61.40;;;;;;5070195;28;20053;-73
2021/08/12 08:54:18;;;;;;;2.53;2.33;;;30.20;60.00;;;;;;5069899;28;20090;-68
2021/08/12 08:56:45;;;;;;;3.17;2.92;;;30.10;60.10;;;;;;5054305;28;20045;-68
2021/08/12 08:59:12;;;;;;;3.25;2.50;;;30.90;60.10;;;;;;5050587;28;20349;-70
2021/08/12 09:01:40;;;;;;;1.95;1.85;;;30.80;58.70;;;;;;5051864;28;20041;-69
2021/08/12 09:04:08;;;;;;;1.80;1.70;;;30.80;56.60;;;;;;5051597;28;20463;-69
2021/08/12 09:06:34;;;;;;;2.47;2.28;;;30.40;56.80;;;;;;5051779;28;20044;-68
2021/08/12 09:09:01;;;;;;;2.67;2.42;;;30.90;58.80;;;;;;5051080;28;20125;-72
2021/08/12 09:11:28;;;;;;;17.13;11.07;;;30.80;56.90;;;;;;5051507;28;20095;-73
2021/08/12 09:13:55;;;;;;;5.22;4.70;;;31.30;56.10;;;;;;5044922;28;20453;-73
2021/08/12 09:16:31;;;;;;;2.00;1.83;;;30.40;56.60;;;;;;5049044;28;20468;-70
2021/08/12 09:19:15;;;;;;;1.77;1.67;;;31.50;54.40;;;;;;5051004;28;20068;-70
2021/08/12 09:21:43;;;;;;;1.67;1.58;;;31.10;52.80;;;;;;5052052;28;20053;-70
2021/08/12 09:24:10;;;;;;;3.72;2.70;;;31.90;50.40;;;;;;5059697;28;20048;-67
2021/08/12 09:26:40;;;;;;;5.32;2.95;;;32.10;52.90;;;;;;5056611;28;20064;-69
2021/08/12 09:29:07;;;;;;;2.90;2.13;;;33.00;50.40;;;;;;5050749;28;20103;-68
2021/08/12 09:31:34;;;;;;;3.22;2.20;;;33.10;50.30;;;;;;5051626;28;20107;-67
2021/08/12 09:34:13;;;;;;;2.13;2.03;;;33.50;50.10;;;;;;5053827;28;20041;-69
2021/08/12 09:36:40;;;;;;;3.88;2.55;;;31.60;49.30;;;;;;5071389;28;20048;-67
2021/08/12 09:39:13;;;;;;;2.15;2.00;;;32.40;50.30;;;;;;5070938;28;20040;-70
2021/08/12 09:41:47;;;;;;;2.72;2.10;;;32.90;50.60;;;;;;5070190;28;20481;-70
2021/08/12 09:44:51;;;;;;;5.95;4.90;;;32.90;49.40;;;;;;5051489;28;20060;-68
2021/08/12 09:47:28;;;;;;;6.68;5.55;;;33.10;48.80;;;;;;5052693;28;20382;-68
2021/08/12 09:49:59;;;;;;;2.08;1.88;;;33.50;49.00;;;;;;5072344;28;20125;-68
2021/08/12 09:52:28;;;;;;;3.42;2.70;;;32.70;50.10;;;;;;5074261;28;20067;-67
2021/08/12 09:55:16;;;;;;;3.47;3.17;;;32.70;48.30;;;;;;5075208;28;20485;-68
2021/08/12 09:57:45;;;;;;;3.92;3.08;;;33.40;49.00;;;;;;5075043;28;20052;-70
2021/08/12 10:00:14;;;;;;;2.30;1.90;;;34.00;47.90;;;;;;5074044;28;20056;-70
2021/08/12 10:02:41;;;;;;;3.45;3.13;;;34.00;47.80;;;;;;5075255;28;20049;-68
2021/08/12 10:05:11;;;;;;;4.00;3.33;;;33.60;48.50;;;;;;5075007;28;20049;-66
2021/08/12 10:07:43;;;;;;;7.43;5.97;;;33.60;48.50;;;;;;5074679;28;20102;-69
2021/08/12 10:10:17;;;;;;;3.17;2.67;;;33.40;47.60;;;;;;5073638;28;20519;-68
2021/08/12 10:12:47;;;;;;;9.65;6.95;;;33.70;46.80;;;;;;5074940;28;20143;-69
2021/08/12 10:15:16;;;;;;;5.85;3.90;;;33.60;46.40;;;;;;5063988;28;20064;-68
2021/08/12 10:17:43;;;;;;;10.05;7.80;;;33.80;45.90;;;;;;5054077;28;20048;-68
2021/08/12 10:20:17;;;;;;;3.95;3.53;;;33.90;45.90;;;;;;5068990;28;20040;-68
2021/08/12 10:22:44;;;;;;;3.17;2.80;;;34.50;46.40;;;;;;5074469;28;20063;-68
2021/08/12 10:25:12;;;;;;;4.68;3.35;;;35.10;45.30;;;;;;5070507;28;20516;-69
2021/08/12 10:27:41;;;;;;;2.58;2.38;;;35.10;46.10;;;;;;5074167;28;20283;-68
2021/08/12 10:30:09;;;;;;;2.67;2.08;;;34.20;46.60;;;;;;5072934;28;20455;-67
2021/08/12 10:32:38;;;;;;;2.45;2.10;;;34.30;47.90;;;;;;5053309;28;20045;-69
2021/08/12 10:35:06;;;;;;;2.25;2.03;;;33.40;46.20;;;;;;5054002;28;20053;-68
2021/08/12 10:37:34;;;;;;;11.80;9.52;;;33.20;47.50;;;;;;5053530;28;20045;-68
2021/08/12 10:40:00;;;;;;;3.00;2.08;;;33.40;48.10;;;;;;5053525;28;20041;-68
2021/08/12 10:42:28;;;;;;;5.40;4.80;;;33.60;46.70;;;;;;5055264;28;20098;-68
2021/08/12 10:44:54;;;;;;;4.10;3.63;;;34.00;46.70;;;;;;5053781;28;20045;-68
2021/08/12 10:47:41;;;;;;;2.58;2.38;;;33.80;46.30;;;;;;5060449;28;20447;-70
2021/08/12 10:50:34;;;;;;;2.08;1.77;;;34.40;44.60;;;;;;5074764;28;20053;-70
2021/08/12 10:53:16;;;;;;;3.30;2.90;;;34.50;44.20;;;;;;5068764;28;20056;-70
2021/08/12 10:56:03;;;;;;;4.70;3.92;;;34.10;45.10;;;;;;5049670;28;20106;-68
2021/08/12 10:58:40;;;;;;;6.75;6.15;;;33.90;45.30;;;;;;5053248;28;20060;-69
2021/08/12 11:01:09;;;;;;;2.80;2.47;;;33.70;45.70;;;;;;5073573;28;20403;-69
2021/08/12 11:03:47;;;;;;;2.28;2.00;;;34.20;46.00;;;;;;5060507;28;20045;-69
2021/08/12 11:06:16;;;;;;;2.65;2.45;;;34.70;44.70;;;;;;5063351;28;20090;-68
2021/08/12 11:09:02;;;;;;;2.45;2.25;;;34.70;45.10;;;;;;5072894;28;20059;-69
2021/08/12 11:11:54;;;;;;;3.67;2.20;;;35.60;44.20;;;;;;5073392;28;20055;-67
2021/08/12 11:14:58;;;;;;;2.47;2.28;;;35.10;43.80;;;;;;5072521;28;20059;-66
2021/08/12 11:17:25;;;;;;;4.72;4.22;;;35.40;44.10;;;;;;5073235;28;20049;-69
2021/08/12 11:19:53;;;;;;;1.70;1.60;;;35.50;44.00;;;;;;5069811;28;20098;-70
2021/08/12 11:22:37;;;;;;;2.70;1.60;;;34.90;42.50;;;;;;5053246;28;20055;-71
2021/08/12 11:25:09;;;;;;;2.25;1.95;;;34.20;41.30;;;;;;5053471;28;20072;-71
2021/08/12 11:27:38;;;;;;;3.78;2.67;;;34.10;42.00;;;;;;5063367;28;20048;-68
2021/08/12 11:30:48;;;;;;;2.40;2.20;;;34.50;42.30;;;;;;5072184;28;20048;-66
2021/08/12 11:33:29;;;;;;;3.30;2.85;;;35.00;42.40;;;;;;5073124;28;20055;-66
2021/08/12 11:36:10;;;;;;;3.53;3.00;;;36.10;40.70;;;;;;5059590;28;20489;-67
2021/08/12 11:38:37;;;;;;;2.42;2.22;;;37.00;41.60;;;;;;5052825;28;20103;-68
2021/08/12 11:41:06;;;;;;;2.35;2.17;;;37.20;39.50;;;;;;5052640;28;20410;-67
2021/08/12 11:43:35;;;;;;;5.75;5.13;;;37.50;40.60;;;;;;5052197;28;20464;-69
2021/08/12 11:46:03;;;;;;;3.08;2.88;;;38.00;39.40;;;;;;5052623;28;20490;-70
2021/08/12 11:48:34;;;;;;;1.80;1.70;;;38.30;39.00;;;;;;5052731;28;20390;-71
2021/08/12 11:51:01;;;;;;;4.30;3.88;;;37.00;39.80;;;;;;5055171;28;20448;-69
2021/08/12 11:53:43;;;;;;;4.18;1.77;;;37.40;40.50;;;;;;5071489;28;20102;-71
2021/08/12 11:56:20;;;;;;;1.83;1.73;;;37.00;38.40;;;;;;5063284;28;20103;-70
2021/08/12 11:58:48;;;;;;;1.40;1.30;;;36.50;40.00;;;;;;5071306;28;20098;-72
2021/08/12 12:01:17;;;;;;;2.67;1.73;;;35.30;41.20;;;;;;5072330;28;20115;-70
2021/08/12 12:03:45;;;;;;;2.00;1.90;;;35.40;42.20;;;;;;5061662;28;20041;-71
2021/08/12 12:06:11;;;;;;;2.63;1.60;;;35.10;41.70;;;;;;5066032;28;20525;-70
2021/08/12 12:08:38;;;;;;;1.52;1.42;;;35.40;41.60;;;;;;5071482;28;20173;-70
2021/08/12 12:11:12;;;;;;;1.60;1.50;;;35.00;40.90;;;;;;5071939;28;20051;-69
2021/08/12 12:13:39;;;;;;;1.88;1.77;;;35.30;41.40;;;;;;5067292;28;20045;-71
2021/08/12 12:16:10;;;;;;;1.80;1.70;;;35.30;40.60;;;;;;5052172;28;20103;-69
2021/08/12 12:18:39;;;;;;;2.58;1.98;;;35.00;41.30;;;;;;5051169;28;20053;-70
2021/08/12 12:21:07;;;;;;;1.85;1.75;;;36.10;39.90;;;;;;5051660;28;20049;-69
2021/08/12 12:23:35;;;;;;;1.58;1.48;;;35.80;39.50;;;;;;5053532;28;20060;-69
2021/08/12 12:26:02;;;;;;;1.67;1.58;;;34.80;40.00;;;;;;5051870;28;20129;-73
2021/08/12 12:28:31;;;;;;;1.63;1.50;;;34.70;39.10;;;;;;5051445;28;20071;-68
2021/08/12 12:31:00;;;;;;;1.40;1.30;;;34.00;39.00;;;;;;5054641;28;20454;-69
2021/08/12 12:33:27;;;;;;;1.58;1.48;;;35.00;39.50;;;;;;5061143;28;20048;-72
2021/08/12 12:35:54;;;;;;;1.42;1.33;;;35.10;38.90;;;;;;5052596;28;20720;-69
2021/08/12 12:38:25;;;;;;;1.30;1.20;;;35.40;39.80;;;;;;5046784;28;20083;-66
2021/08/12 12:40:53;;;;;;;;;;;34.80;39.50;;;;;;5070439;28;20045;-67
2021/08/12 12:43:20;;;;;;;1.42;1.40;;;33.90;39.60;;;;;;5068390;28;20272;-66
2021/08/12 12:45:49;;;;;;;2.08;1.90;;;33.80;40.60;;;;;;5051600;28;20049;-72
2021/08/12 12:48:17;;;;;;;1.60;1.50;;;34.80;40.70;;;;;;5061191;28;20040;-74
2021/08/12 12:50:47;;;;;;;2.03;1.92;;;35.30;39.30;;;;;;5031003;28;20417;-70